Time;durP1;ratioP1;P1;durP2;ratioP2;P2;SDS_P1;SDS_P2;PMS_P1;PMS_P2;Temp;Humidity;BMP_temperature;BMP_pressure;BME280_temperature;BME280_humidity;BME280_pressure;Samples;Min_cycle;Max_cycle;Signal;HPM_P1;HPM_P2
2023/01/10 00:00:09;;;;;;;21.57;11.90;;;;;;;;;;5078054;28;20586;-69
2023/01/10 00:02:35;;;;;;;30.77;12.37;;;;;;;;;;5059396;28;20192;-69
2023/01/10 00:05:01;;;;;;;21.67;12.07;;;;;;;;;;5059911;28;20197;-69
2023/01/10 00:07:27;;;;;;;22.53;12.67;;;;;;;;;;5078414;28;20293;-69
2023/01/10 00:09:53;;;;;;;23.40;12.27;;;;;;;;;;5077539;28;20209;-70
2023/01/10 00:15:04;;;;;;;27.33;12.37;;;;;;;;;;5076957;28;20205;-69
2023/01/10 00:17:30;;;;;;;32.63;13.23;;;;;;;;;;5058305;28;20248;-69
2023/01/10 00:19:56;;;;;;;22.90;12.73;;;;;;;;;;5076609;28;20181;-69
2023/01/10 00:22:23;;;;;;;28.97;13.33;;;;;;;;;;5076381;28;20178;-69
2023/01/10 00:24:50;;;;;;;25.73;11.63;;;;;;;;;;5058420;28;20208;-69
2023/01/10 00:27:21;;;;;;;32.07;12.97;;;;;;;;;;5057881;28;20217;-69
2023/01/10 00:29:47;;;;;;;26.30;11.33;;;;;;;;;;5058520;28;20239;-69
2023/01/10 00:32:13;;;;;;;24.13;11.53;;;;;;;;;;5075991;28;20169;-69
2023/01/10 00:34:39;;;;;;;22.47;10.30;;;;;;;;;;5058382;28;20185;-69
2023/01/10 00:37:05;;;;;;;27.97;10.73;;;;;;;;;;5076082;28;20194;-69
2023/01/10 00:39:30;;;;;;;19.40;10.17;;;;;;;;;;5075965;28;20189;-69
2023/01/10 00:44:41;;;;;;;24.40;9.37;;;;;;;;;;5075647;28;20196;-69
2023/01/10 00:47:07;;;;;;;27.57;9.87;;;;;;;;;;5057929;28;20214;-70
2023/01/10 00:49:33;;;;;;;18.97;8.67;;;;;;;;;;5057994;28;20235;-69
2023/01/10 00:51:59;;;;;;;24.47;9.50;;;;;;;;;;5057872;28;20272;-70
2023/01/10 00:54:25;;;;;;;22.00;8.67;;;;;;;;;;5057685;28;20178;-70
2023/01/10 00:56:51;;;;;;;22.13;8.80;;;;;;;;;;5058648;28;20212;-70
2023/01/10 00:59:17;;;;;;;25.53;8.47;;;;;;;;;;5075958;28;20185;-70
2023/01/10 01:01:43;;;;;;;21.00;8.47;;;;;;;;;;5057881;28;20182;-71
2023/01/10 01:04:09;;;;;;;21.83;7.53;;;;;;;;;;5057565;28;20190;-70
2023/01/10 01:06:35;;;;;;;18.83;7.30;;;;;;;;;;5057194;28;20259;-71
2023/01/10 01:09:01;;;;;;;16.20;7.67;;;;;;;;;;5075628;28;20217;-71
2023/01/10 01:11:27;;;;;;;18.27;7.17;;;;;;;;;;5075251;28;20558;-70
2023/01/10 01:13:53;;;;;;;16.80;7.13;;;;;;;;;;5057341;28;20281;-70
2023/01/10 01:16:19;;;;;;;19.07;7.97;;;;;;;;;;5057033;28;20188;-70
2023/01/10 01:18:45;;;;;;;22.10;6.83;;;;;;;;;;5075008;28;20205;-70
2023/01/10 01:21:11;;;;;;;19.07;6.73;;;;;;;;;;5075278;28;20185;-69
2023/01/10 01:23:37;;;;;;;20.40;7.23;;;;;;;;;;5057873;28;20210;-70
2023/01/10 01:26:05;;;;;;;20.30;6.60;;;;;;;;;;5075865;28;20646;-70
2023/01/10 01:28:31;;;;;;;18.90;6.50;;;;;;;;;;5057827;28;20217;-71
2023/01/10 01:30:57;;;;;;;17.97;6.30;;;;;;;;;;5058274;28;20230;-70
2023/01/10 01:33:23;;;;;;;15.50;6.67;;;;;;;;;;5075356;28;20174;-70
2023/01/10 01:35:49;;;;;;;23.00;6.20;;;;;;;;;;5075134;28;20642;-70
2023/01/10 01:38:16;;;;;;;13.03;6.13;;;;;;;;;;5074825;28;20190;-70
2023/01/10 01:40:42;;;;;;;19.17;5.47;;;;;;;;;;5075024;28;20173;-70
2023/01/10 01:43:19;;;;;;;15.43;6.30;;;;;;;;;;5074623;28;20178;-70
2023/01/10 01:45:46;;;;;;;17.17;5.40;;;;;;;;;;5076616;28;20168;-71
2023/01/10 01:48:14;;;;;;;16.37;5.13;;;;;;;;;;5074603;28;20276;-70
2023/01/10 01:50:43;;;;;;;18.27;4.87;;;;;;;;;;5074496;28;20197;-70
2023/01/10 01:53:11;;;;;;;16.60;6.17;;;;;;;;;;5074319;28;20181;-70
2023/01/10 01:55:38;;;;;;;17.07;5.73;;;;;;;;;;5074191;28;20196;-71
2023/01/10 01:58:08;;;;;;;18.20;5.10;;;;;;;;;;5074110;28;20208;-70
2023/01/10 02:00:34;;;;;;;20.50;5.80;;;;;;;;;;5074019;28;20188;-70
2023/01/10 02:03:01;;;;;;;16.97;4.80;;;;;;;;;;5056287;28;20215;-70
2023/01/10 02:05:27;;;;;;;15.80;4.63;;;;;;;;;;5056134;28;20205;-70
2023/01/10 02:07:57;;;;;;;14.87;4.57;;;;;;;;;;5056321;28;20230;-69
2023/01/10 02:10:37;;;;;;;13.33;4.47;;;;;;;;;;5056237;28;20178;-71
2023/01/10 02:13:04;;;;;;;15.37;4.50;;;;;;;;;;5056176;28;20174;-71
2023/01/10 02:15:30;;;;;;;22.53;5.43;;;;;;;;;;5056458;28;20660;-69
2023/01/10 02:17:56;;;;;;;18.50;4.10;;;;;;;;;;5074609;28;20226;-70
2023/01/10 02:20:22;;;;;;;15.97;4.87;;;;;;;;;;5074742;28;20263;-70
2023/01/10 02:23:00;;;;;;;19.87;4.73;;;;;;;;;;5074940;28;20174;-71
2023/01/10 02:25:42;;;;;;;15.90;4.20;;;;;;;;;;5074820;28;20194;-70
2023/01/10 02:28:08;;;;;;;19.57;4.37;;;;;;;;;;5074427;28;20220;-71
2023/01/10 02:30:43;;;;;;;19.77;4.63;;;;;;;;;;5074714;28;20174;-70
2023/01/10 02:33:21;;;;;;;18.70;4.57;;;;;;;;;;5074833;28;20639;-71
2023/01/10 02:35:56;;;;;;;17.17;4.77;;;;;;;;;;5074984;28;20186;-70
2023/01/10 02:38:28;;;;;;;18.70;5.20;;;;;;;;;;5074297;28;20192;-70
2023/01/10 02:41:09;;;;;;;20.07;5.20;;;;;;;;;;5074011;28;20174;-70
2023/01/10 02:43:38;;;;;;;20.83;4.53;;;;;;;;;;5055961;28;20205;-70
2023/01/10 02:46:15;;;;;;;19.33;4.50;;;;;;;;;;5055844;28;20695;-70
2023/01/10 02:48:40;;;;;;;16.27;4.80;;;;;;;;;;5073895;28;20621;-70
2023/01/10 02:51:15;;;;;;;20.97;5.30;;;;;;;;;;5073745;28;20208;-70
2023/01/10 02:53:44;;;;;;;17.10;4.97;;;;;;;;;;5055744;28;20173;-70
2023/01/10 02:56:10;;;;;;;20.63;5.40;;;;;;;;;;5055697;28;20182;-70
2023/01/10 02:58:55;;;;;;;21.63;5.57;;;;;;;;;;5055546;28;20224;-71
2023/01/10 03:01:21;;;;;;;17.37;5.47;;;;;;;;;;5073946;28;20173;-70
2023/01/10 03:03:52;;;;;;;16.00;4.57;;;;;;;;;;5055413;28;20213;-70
2023/01/10 03:06:23;;;;;;;22.23;5.37;;;;;;;;;;5073572;28;20208;-71
2023/01/10 03:08:52;;;;;;;14.93;4.97;;;;;;;;;;5059599;28;20556;-69
2023/01/10 03:11:38;;;;;;;17.90;5.17;;;;;;;;;;5077732;28;20185;-70
2023/01/10 03:14:05;;;;;;;18.73;5.30;;;;;;;;;;5059748;28;20219;-70
2023/01/10 03:16:32;;;;;;;24.20;5.30;;;;;;;;;;5077497;28;20634;-70
2023/01/10 03:19:01;;;;;;;27.43;6.10;;;;;;;;;;5059552;28;20660;-70
2023/01/10 03:21:28;;;;;;;17.10;4.73;;;;;;;;;;5077771;28;20174;-71
2023/01/10 03:23:56;;;;;;;16.30;5.13;;;;;;;;;;5077377;28;20361;-70
2023/01/10 03:26:26;;;;;;;16.50;4.77;;;;;;;;;;5060436;28;20174;-70
2023/01/10 03:28:56;;;;;;;21.10;5.77;;;;;;;;;;5059628;28;20178;-70
2023/01/10 03:31:31;;;;;;;15.10;5.30;;;;;;;;;;5077477;28;20668;-70
2023/01/10 03:33:57;;;;;;;21.27;4.70;;;;;;;;;;5077389;28;20178;-70
2023/01/10 03:36:36;;;;;;;17.40;4.97;;;;;;;;;;5077092;28;20177;-70
2023/01/10 03:39:17;;;;;;;12.80;4.50;;;;;;;;;;5077743;28;20174;-69
2023/01/10 03:41:52;;;;;;;18.17;4.47;;;;;;;;;;5077325;28;20176;-70
2023/01/10 03:47:26;;;;;;;16.93;5.17;;;;;;;;;;5077200;28;20213;-70
2023/01/10 03:50:16;;;;;;;18.13;5.10;;;;;;;;;;5059023;28;20174;-70
2023/01/10 03:52:42;;;;;;;20.33;5.03;;;;;;;;;;5051015;28;20186;-71
2023/01/10 03:55:10;;;;;;;18.87;5.30;;;;;;;;;;5077343;28;20778;-70
2023/01/10 03:57:36;;;;;;;20.07;4.83;;;;;;;;;;5076832;28;20263;-70
2023/01/10 04:00:03;;;;;;;17.00;5.17;;;;;;;;;;5058706;28;20638;-71
2023/01/10 04:02:30;;;;;;;18.17;4.50;;;;;;;;;;5058529;28;20177;-70
2023/01/10 04:04:56;;;;;;;13.30;4.23;;;;;;;;;;5076806;28;20193;-70
2023/01/10 04:07:22;;;;;;;16.30;4.03;;;;;;;;;;5058562;28;20247;-70
2023/01/10 04:09:48;;;;;;;15.90;4.50;;;;;;;;;;5058690;28;20550;-70
2023/01/10 04:12:14;;;;;;;16.53;4.80;;;;;;;;;;5076697;28;20178;-70
2023/01/10 04:14:40;;;;;;;15.63;4.57;;;;;;;;;;5076466;28;20189;-70
2023/01/10 04:17:07;;;;;;;14.77;4.27;;;;;;;;;;5077588;28;20198;-69
2023/01/10 04:19:33;;;;;;;12.80;4.53;;;;;;;;;;5076143;28;20182;-70
2023/01/10 04:21:59;;;;;;;16.50;5.00;;;;;;;;;;5058352;28;20554;-70
2023/01/10 04:24:25;;;;;;;26.63;5.17;;;;;;;;;;5076113;28;20201;-70
2023/01/10 04:26:51;;;;;;;19.03;5.03;;;;;;;;;;5058871;28;20692;-72
2023/01/10 04:29:17;;;;;;;16.03;4.47;;;;;;;;;;5077529;28;20703;-70
2023/01/10 04:31:43;;;;;;;14.33;4.53;;;;;;;;;;5058459;28;20177;-70
2023/01/10 04:34:09;;;;;;;19.63;5.07;;;;;;;;;;5058246;28;20182;-70
2023/01/10 04:36:35;;;;;;;18.17;4.33;;;;;;;;;;5058307;28;20227;-70
2023/01/10 04:39:01;;;;;;;19.30;3.67;;;;;;;;;;5057977;28;20713;-70
2023/01/10 04:41:27;;;;;;;22.00;4.33;;;;;;;;;;5075883;28;20178;-71
2023/01/10 04:43:53;;;;;;;10.30;4.50;;;;;;;;;;5075983;28;20198;-71
2023/01/10 04:46:19;;;;;;;19.60;4.87;;;;;;;;;;5058400;28;20178;-71
2023/01/10 04:48:45;;;;;;;16.53;4.23;;;;;;;;;;5077153;28;20223;-71
2023/01/10 04:51:11;;;;;;;18.43;4.53;;;;;;;;;;5076706;28;20261;-70
2023/01/10 04:53:37;;;;;;;20.77;4.47;;;;;;;;;;5058508;28;20239;-70
2023/01/10 04:56:07;;;;;;;18.77;4.57;;;;;;;;;;5058907;28;20177;-71
2023/01/10 04:58:34;;;;;;;21.47;5.00;;;;;;;;;;5058198;28;20570;-71
2023/01/10 05:01:06;;;;;;;19.73;5.00;;;;;;;;;;5076599;28;20223;-71
2023/01/10 05:03:32;;;;;;;17.53;4.57;;;;;;;;;;5058428;28;20170;-71
2023/01/10 05:05:58;;;;;;;21.03;5.20;;;;;;;;;;5078988;28;20173;-71
2023/01/10 05:08:24;;;;;;;19.70;5.13;;;;;;;;;;5077493;28;20190;-71
2023/01/10 05:10:50;;;;;;;19.40;5.37;;;;;;;;;;5058401;28;20270;-71
2023/01/10 05:13:15;;;;;;;19.43;5.10;;;;;;;;;;5075765;28;20181;-71
2023/01/10 05:15:41;;;;;;;21.17;4.80;;;;;;;;;;5076133;28;20177;-71
2023/01/10 05:18:07;;;;;;;14.00;4.77;;;;;;;;;;5057936;28;20212;-71
2023/01/10 05:20:34;;;;;;;19.80;5.17;;;;;;;;;;5075677;28;20178;-71
2023/01/10 05:22:59;;;;;;;27.97;5.50;;;;;;;;;;5076606;28;20189;-72
2023/01/10 05:25:25;;;;;;;19.00;4.97;;;;;;;;;;5057943;28;20194;-71
2023/01/10 05:27:51;;;;;;;21.27;5.87;;;;;;;;;;5057776;28;20316;-71
2023/01/10 05:30:18;;;;;;;18.07;4.83;;;;;;;;;;5056759;28;20186;-71
2023/01/10 05:32:43;;;;;;;19.67;4.23;;;;;;;;;;5058680;28;20182;-71
2023/01/10 05:35:09;;;;;;;21.07;4.90;;;;;;;;;;5076098;28;20189;-71
2023/01/10 05:37:36;;;;;;;25.37;5.07;;;;;;;;;;5057785;28;20213;-72
2023/01/10 05:40:02;;;;;;;22.27;4.37;;;;;;;;;;5075877;28;20181;-72
2023/01/10 05:42:28;;;;;;;23.67;5.20;;;;;;;;;;5075571;28;20192;-71
2023/01/10 05:44:54;;;;;;;19.17;5.10;;;;;;;;;;5075715;28;20201;-72
2023/01/10 05:47:20;;;;;;;22.20;4.97;;;;;;;;;;5075393;28;20247;-71
2023/01/10 05:49:45;;;;;;;24.67;5.10;;;;;;;;;;5075718;28;20174;-71
2023/01/10 05:52:11;;;;;;;21.37;5.17;;;;;;;;;;5075735;28;20252;-71
2023/01/10 05:54:37;;;;;;;22.27;5.13;;;;;;;;;;5076308;28;20622;-71
2023/01/10 05:57:03;;;;;;;22.20;6.20;;;;;;;;;;5076069;28;20281;-71
2023/01/10 05:59:29;;;;;;;21.33;4.57;;;;;;;;;;5056923;28;20181;-71
2023/01/10 06:01:55;;;;;;;22.67;4.73;;;;;;;;;;5057615;28;20185;-71
2023/01/10 06:04:21;;;;;;;21.77;4.83;;;;;;;;;;5075184;28;20202;-71
2023/01/10 06:06:47;;;;;;;24.97;4.90;;;;;;;;;;5056894;28;20221;-71
2023/01/10 06:09:13;;;;;;;20.83;4.70;;;;;;;;;;5074826;28;20174;-71
2023/01/10 06:11:39;;;;;;;19.07;4.83;;;;;;;;;;5075085;28;20245;-71
2023/01/10 06:14:06;;;;;;;28.00;5.90;;;;;;;;;;5075271;28;20605;-71
2023/01/10 06:16:32;;;;;;;21.87;5.27;;;;;;;;;;5075266;28;20182;-71
2023/01/10 06:18:58;;;;;;;29.37;5.47;;;;;;;;;;5075117;28;20189;-71
2023/01/10 06:21:24;;;;;;;26.37;5.07;;;;;;;;;;5074492;28;20182;-71
2023/01/10 06:23:50;;;;;;;27.90;5.53;;;;;;;;;;5074355;28;20253;-71
2023/01/10 06:26:17;;;;;;;21.83;4.83;;;;;;;;;;5075583;28;20173;-71
2023/01/10 06:28:43;;;;;;;35.23;5.60;;;;;;;;;;5075080;28;20201;-71
2023/01/10 06:31:09;;;;;;;28.87;5.17;;;;;;;;;;5074440;28;20699;-71
2023/01/10 06:33:37;;;;;;;22.10;5.23;;;;;;;;;;5074716;28;20635;-72
2023/01/10 06:36:03;;;;;;;25.07;5.93;;;;;;;;;;5074756;28;20642;-71
2023/01/10 06:38:29;;;;;;;29.90;5.77;;;;;;;;;;5056716;28;20284;-71
2023/01/10 06:40:55;;;;;;;20.43;5.10;;;;;;;;;;5075192;28;20615;-70
2023/01/10 06:43:21;;;;;;;27.87;5.83;;;;;;;;;;5057337;28;20177;-71
2023/01/10 06:45:47;;;;;;;20.37;4.77;;;;;;;;;;5077788;28;20214;-71
2023/01/10 06:48:13;;;;;;;22.50;4.63;;;;;;;;;;5074769;28;20185;-70
2023/01/10 06:50:39;;;;;;;28.10;6.00;;;;;;;;;;5073903;28;20231;-71
2023/01/10 06:53:05;;;;;;;34.63;6.27;;;;;;;;;;5074060;28;20660;-71
2023/01/10 06:55:31;;;;;;;19.80;5.60;;;;;;;;;;5073904;28;20182;-70
2023/01/10 06:58:01;;;;;;;22.37;5.33;;;;;;;;;;5074560;28;20278;-71
2023/01/10 07:00:28;;;;;;;21.80;5.30;;;;;;;;;;5056515;28;20680;-71
2023/01/10 07:02:55;;;;;;;24.90;5.27;;;;;;;;;;5074536;28;20257;-71
2023/01/10 07:05:21;;;;;;;23.43;5.40;;;;;;;;;;5074486;28;20198;-70
2023/01/10 07:07:47;;;;;;;26.43;6.13;;;;;;;;;;5074009;28;20276;-71
2023/01/10 07:10:13;;;;;;;25.23;5.73;;;;;;;;;;5073989;28;20265;-70
2023/01/10 07:27:23;;;;;;;17.53;5.30;;;;;;;;;;5133828;27;20563;-69
2023/01/10 07:29:49;;;;;;;19.90;5.13;;;;;;;;;;5133707;27;20237;-73
2023/01/10 07:32:15;;;;;;;23.30;5.33;;;;;;;;;;5132379;28;20180;-73
2023/01/10 07:34:41;;;;;;;22.10;4.77;;;;;;;;;;5131359;28;20172;-69
2023/01/10 07:37:07;;;;;;;21.30;5.27;;;;;;;;;;5133929;27;20252;-73
2023/01/10 07:39:33;;;;;;;19.13;4.73;;;;;;;;;;5133489;27;20180;-74
2023/01/10 07:42:00;;;;;;;23.70;4.80;;;;;;;;;;5133595;27;20207;-73
2023/01/10 07:44:26;;;;;;;30.37;6.33;;;;;;;;;;5144754;22;20612;-72
2023/01/10 07:46:52;;;;;;;24.13;5.00;;;;;;;;;;5110055;28;20173;-72
2023/01/10 07:49:18;;;;;;;24.80;5.03;;;;;;;;;;5111004;28;20184;-71
2023/01/10 07:51:44;;;;;;;25.10;5.63;;;;;;;;;;5109881;28;20191;-72
2023/01/10 07:54:09;;;;;;;18.73;5.03;;;;;;;;;;5111452;28;20204;-72
2023/01/10 07:56:35;;;;;;;29.03;6.73;;;;;;;;;;5109908;28;20207;-72
2023/01/10 07:59:01;;;;;;;23.90;5.30;;;;;;;;;;5111514;28;20252;-72
2023/01/10 08:01:29;;;;;;;28.60;6.80;;;;;;;;;;5109992;28;20187;-72
2023/01/10 08:03:55;;;;;;;23.20;5.40;;;;;;;;;;5112160;28;20284;-72
2023/01/10 08:06:21;;;;;;;23.97;5.43;;;;;;;;;;5113037;28;20203;-72
2023/01/10 08:08:47;;;;;;;28.07;5.73;;;;;;;;;;5111351;28;20653;-71
2023/01/10 08:11:13;;;;;;;24.37;4.93;;;;;;;;;;5111538;28;20179;-72
2023/01/10 08:13:39;;;;;;;28.17;5.10;;;;;;;;;;5111401;28;20196;-71
2023/01/10 08:16:06;;;;;;;30.60;5.83;;;;;;;;;;5111497;28;20201;-71
2023/01/10 08:18:32;;;;;;;22.27;5.73;;;;;;;;;;5110885;28;20236;-71
2023/01/10 08:20:58;;;;;;;31.03;6.57;;;;;;;;;;5111361;28;20176;-72
2023/01/10 08:23:24;;;;;;;23.20;5.63;;;;;;;;;;5111251;28;20183;-72
2023/01/10 08:25:50;;;;;;;27.43;6.27;;;;;;;;;;5109834;28;20180;-72
2023/01/10 08:28:16;;;;;;;26.70;6.47;;;;;;;;;;5096681;28;20177;-71
2023/01/10 08:30:42;;;;;;;28.63;6.77;;;;;;;;;;5097154;28;20252;-72
2023/01/10 08:33:09;;;;;;;28.87;6.53;;;;;;;;;;5102078;28;20219;-72
2023/01/10 08:35:39;;;;;;;32.17;6.43;;;;;;;;;;5106078;28;20577;-70
2023/01/10 08:38:05;;;;;;;26.47;6.13;;;;;;;;;;5103278;28;20191;-72
2023/01/10 08:40:31;;;;;;;30.17;6.40;;;;;;;;;;5104651;28;20173;-72
2023/01/10 08:42:58;;;;;;;34.43;6.80;;;;;;;;;;5107559;28;20181;-71
2023/01/10 08:45:24;;;;;;;38.50;7.23;;;;;;;;;;5106889;28;20210;-72
2023/01/10 08:47:50;;;;;;;20.60;5.97;;;;;;;;;;5107325;28;20195;-71
2023/01/10 08:50:16;;;;;;;38.37;7.93;;;;;;;;;;5109941;28;20188;-72
2023/01/10 08:52:42;;;;;;;29.33;6.40;;;;;;;;;;5108967;28;20230;-71
2023/01/10 08:55:08;;;;;;;28.27;5.93;;;;;;;;;;5109000;28;20272;-72
2023/01/10 08:57:34;;;;;;;31.93;7.47;;;;;;;;;;5109428;28;20181;-71
2023/01/10 09:00:00;;;;;;;31.97;6.40;;;;;;;;;;5110030;28;20184;-72
2023/01/10 09:02:26;;;;;;;25.37;6.47;;;;;;;;;;5110006;28;20193;-72
2023/01/10 09:04:51;;;;;;;40.87;11.23;;;;;;;;;;5108031;28;20197;-71
2023/01/10 09:07:17;;;;;;;32.97;7.10;;;;;;;;;;5108224;28;20188;-71
2023/01/10 09:09:43;;;;;;;32.13;8.17;;;;;;;;;;5111516;28;20160;-72
2023/01/10 09:14:54;;;;;;;28.13;6.70;;;;;;;;;;5109593;28;20223;-71
2023/01/10 09:17:20;;;;;;;35.43;8.57;;;;;;;;;;5108595;28;20173;-72
2023/01/10 09:19:46;;;;;;;35.13;10.87;;;;;;;;;;5110303;28;20165;-71
2023/01/10 09:22:12;;;;;;;31.17;10.07;;;;;;;;;;5109427;28;20181;-72
2023/01/10 09:24:40;;;;;;;24.83;7.10;;;;;;;;;;5109310;28;20200;-71
2023/01/10 09:27:06;;;;;;;31.87;7.17;;;;;;;;;;5108392;28;20204;-71
2023/01/10 09:29:32;;;;;;;26.23;6.40;;;;;;;;;;5108668;28;20188;-72
2023/01/10 09:31:58;;;;;;;32.77;7.90;;;;;;;;;;5109047;28;20176;-71
2023/01/10 09:34:24;;;;;;;24.43;5.77;;;;;;;;;;5108433;28;20216;-72
2023/01/10 09:36:50;;;;;;;27.03;7.13;;;;;;;;;;5109561;28;20265;-72
2023/01/10 09:39:16;;;;;;;25.00;6.27;;;;;;;;;;5108917;28;20626;-71
2023/01/10 09:41:56;;;;;;;31.50;7.13;;;;;;;;;;5115238;28;20173;-71
2023/01/10 09:44:37;;;;;;;23.57;5.97;;;;;;;;;;5120674;28;20192;-71
2023/01/10 09:47:18;;;;;;;26.13;5.00;;;;;;;;;;5120257;28;20146;-71
2023/01/10 09:50:00;;;;;;;24.63;6.23;;;;;;;;;;5119577;28;20165;-72
2023/01/10 09:52:52;;;;;;;25.00;6.27;;;;;;;;;;5119972;28;20217;-72
2023/01/10 09:55:21;;;;;;;28.07;5.90;;;;;;;;;;5086941;28;20224;-72
2023/01/10 09:57:47;;;;;;;28.23;5.93;;;;;;;;;;5119215;28;20170;-70
2023/01/10 10:00:18;;;;;;;26.00;6.10;;;;;;;;;;5120307;28;21113;-72
2023/01/10 10:02:47;;;;;;;27.03;6.40;;;;;;;;;;5098247;28;20173;-72
2023/01/10 10:05:23;;;;;;;27.83;5.73;;;;;;;;;;5095537;28;20204;-72
2023/01/10 10:07:54;;;;;;;26.43;5.60;;;;;;;;;;5095487;28;20172;-72
2023/01/10 10:10:31;;;;;;;14.83;4.93;;;;;;;;;;5106995;28;20194;-71
2023/01/10 10:13:12;;;;;;;26.10;5.30;;;;;;;;;;5097807;28;20192;-71
2023/01/10 10:15:45;;;;;;;29.43;6.70;;;;;;;;;;5096427;28;20232;-71
2023/01/10 10:18:30;;;;;;;21.63;5.53;;;;;;;;;;5096535;28;20162;-71
2023/01/10 10:21:14;;;;;;;33.70;5.57;;;;;;;;;;5096273;28;20169;-71
2023/01/10 10:23:59;;;;;;;26.00;5.67;;;;;;;;;;5094129;28;20197;-71
2023/01/10 10:26:29;;;;;;;20.20;5.80;;;;;;;;;;5095113;28;20242;-72
2023/01/10 10:28:58;;;;;;;32.70;7.03;;;;;;;;;;5094007;28;20173;-71
2023/01/10 10:31:33;;;;;;;28.17;6.03;;;;;;;;;;5094173;28;20173;-71
2023/01/10 10:34:04;;;;;;;17.53;4.97;;;;;;;;;;5097614;28;20206;-72
2023/01/10 10:36:46;;;;;;;22.87;7.23;;;;;;;;;;5095755;28;20185;-72
2023/01/10 10:39:15;;;;;;;19.20;5.93;;;;;;;;;;5094672;28;20181;-72
2023/01/10 10:41:43;;;;;;;32.50;6.43;;;;;;;;;;5094313;28;20244;-72
2023/01/10 10:44:26;;;;;;;25.07;6.93;;;;;;;;;;5094470;28;20216;-72
2023/01/10 10:46:53;;;;;;;24.77;6.20;;;;;;;;;;5094238;28;20172;-71
2023/01/10 10:49:31;;;;;;;22.13;5.17;;;;;;;;;;5093785;28;20179;-71
2023/01/10 10:51:57;;;;;;;20.43;4.83;;;;;;;;;;5094413;28;20176;-71
2023/01/10 10:54:23;;;;;;;22.77;5.33;;;;;;;;;;5092950;28;20624;-72
2023/01/10 10:56:49;;;;;;;21.90;5.20;;;;;;;;;;5092910;28;20204;-72
2023/01/10 10:59:18;;;;;;;29.93;6.10;;;;;;;;;;5092451;28;20553;-71
2023/01/10 11:01:47;;;;;;;21.47;5.03;;;;;;;;;;5093966;28;20226;-71
2023/01/10 11:04:15;;;;;;;24.30;5.67;;;;;;;;;;5092383;28;20200;-71
2023/01/10 11:06:47;;;;;;;22.07;6.00;;;;;;;;;;5093811;28;20193;-70
2023/01/10 11:09:15;;;;;;;19.93;4.70;;;;;;;;;;5093982;28;20200;-70
2023/01/10 11:11:44;;;;;;;20.83;5.47;;;;;;;;;;5093624;28;20221;-70
2023/01/10 11:14:11;;;;;;;21.30;4.80;;;;;;;;;;5093506;28;20197;-70
2023/01/10 11:16:39;;;;;;;25.90;5.03;;;;;;;;;;5093839;28;20243;-70
2023/01/10 11:19:21;;;;;;;25.80;5.60;;;;;;;;;;5093635;28;20177;-70
2023/01/10 11:21:50;;;;;;;28.97;6.00;;;;;;;;;;5091989;28;20177;-70
2023/01/10 11:24:25;;;;;;;23.33;5.23;;;;;;;;;;5094759;28;20196;-70
2023/01/10 11:26:51;;;;;;;20.97;4.90;;;;;;;;;;5092191;28;20184;-71
2023/01/10 11:29:20;;;;;;;17.53;4.90;;;;;;;;;;5091996;28;20605;-70
2023/01/10 11:31:48;;;;;;;20.43;5.27;;;;;;;;;;5091850;28;20185;-71
2023/01/10 11:34:25;;;;;;;24.17;5.87;;;;;;;;;;5092052;28;20201;-70
2023/01/10 11:36:52;;;;;;;16.30;4.40;;;;;;;;;;5091726;28;20695;-70
2023/01/10 11:39:18;;;;;;;18.83;5.07;;;;;;;;;;5091878;28;20188;-70
2023/01/10 11:41:44;;;;;;;17.73;4.80;;;;;;;;;;5093151;28;20254;-70
2023/01/10 11:44:15;;;;;;;17.47;4.53;;;;;;;;;;5091703;28;20299;-71
2023/01/10 11:46:43;;;;;;;21.00;5.20;;;;;;;;;;5091812;28;20725;-70
2023/01/10 11:49:18;;;;;;;18.73;5.10;;;;;;;;;;5093020;28;20226;-70
2023/01/10 11:51:48;;;;;;;18.63;5.20;;;;;;;;;;5091736;28;20181;-71
2023/01/10 11:54:25;;;;;;;17.20;4.93;;;;;;;;;;5093224;28;20228;-70
2023/01/10 11:56:55;;;;;;;25.07;5.57;;;;;;;;;;5093218;28;20192;-71
2023/01/10 11:59:22;;;;;;;22.77;5.60;;;;;;;;;;5091837;28;20536;-71
2023/01/10 12:01:53;;;;;;;17.47;4.97;;;;;;;;;;5093604;28;20256;-70
2023/01/10 12:04:19;;;;;;;20.30;5.23;;;;;;;;;;5095613;28;20189;-71
2023/01/10 12:06:47;;;;;;;21.20;4.80;;;;;;;;;;5095619;28;20580;-71
2023/01/10 12:09:31;;;;;;;22.53;5.30;;;;;;;;;;5096964;28;20225;-72
2023/01/10 12:12:04;;;;;;;19.73;5.03;;;;;;;;;;5095802;28;20177;-72
2023/01/10 12:14:30;;;;;;;20.43;4.77;;;;;;;;;;5097153;28;20224;-72
2023/01/10 12:17:01;;;;;;;19.00;4.43;;;;;;;;;;5097077;28;20247;-71
2023/01/10 12:19:28;;;;;;;27.90;5.33;;;;;;;;;;5096752;28;20176;-71
2023/01/10 12:21:55;;;;;;;18.03;4.63;;;;;;;;;;5095368;28;20207;-71
2023/01/10 12:24:27;;;;;;;18.03;4.57;;;;;;;;;;5095141;28;20193;-73
2023/01/10 12:26:53;;;;;;;22.23;4.93;;;;;;;;;;5096738;28;20687;-71
2023/01/10 12:29:25;;;;;;;23.87;5.27;;;;;;;;;;5096449;28;20260;-71
2023/01/10 12:31:52;;;;;;;24.60;7.13;;;;;;;;;;5096342;28;20196;-71
2023/01/10 12:34:20;;;;;;;21.77;5.63;;;;;;;;;;5095045;28;20307;-72
2023/01/10 12:36:46;;;;;;;23.43;5.23;;;;;;;;;;5094780;28;20208;-71
2023/01/10 12:39:21;;;;;;;17.47;4.53;;;;;;;;;;5095043;28;20173;-72
2023/01/10 12:44:41;;;;;;;18.77;4.37;;;;;;;;;;5095810;28;20224;-71
2023/01/10 12:47:13;;;;;;;19.03;4.57;;;;;;;;;;5095932;28;20173;-72
2023/01/10 12:49:45;;;;;;;15.07;5.67;;;;;;;;;;5096153;28;20170;-71
2023/01/10 12:52:41;;;;;;;21.37;5.30;;;;;;;;;;5094693;28;20181;-71
2023/01/10 12:55:12;;;;;;;21.77;4.27;;;;;;;;;;5073751;28;20217;-71
2023/01/10 12:57:38;;;;;;;14.00;3.97;;;;;;;;;;5096258;28;20644;-71
2023/01/10 13:00:06;;;;;;;20.80;5.30;;;;;;;;;;5096012;28;20173;-71
2023/01/10 13:02:40;;;;;;;16.40;3.73;;;;;;;;;;5095744;28;20252;-71
2023/01/10 13:05:06;;;;;;;15.23;4.73;;;;;;;;;;5096924;28;20201;-71
2023/01/10 13:07:33;;;;;;;16.00;4.30;;;;;;;;;;5096226;28;20177;-71
2023/01/10 13:10:01;;;;;;;26.03;5.30;;;;;;;;;;5095907;28;20177;-71
2023/01/10 13:12:33;;;;;;;20.27;5.20;;;;;;;;;;5095470;28;20176;-72
2023/01/10 13:15:09;;;;;;;16.17;4.33;;;;;;;;;;5095384;28;20776;-72
2023/01/10 13:17:41;;;;;;;16.70;3.83;;;;;;;;;;5094266;28;20652;-71
2023/01/10 13:20:16;;;;;;;26.23;4.83;;;;;;;;;;5095584;28;20638;-71
2023/01/10 13:22:47;;;;;;;17.83;4.23;;;;;;;;;;5095348;28;20544;-72
2023/01/10 13:25:23;;;;;;;19.20;4.00;;;;;;;;;;5095475;28;20245;-71
2023/01/10 13:27:57;;;;;;;16.90;4.23;;;;;;;;;;5095553;28;20634;-72
2023/01/10 13:30:31;;;;;;;21.27;4.30;;;;;;;;;;5094110;28;20189;-72
2023/01/10 13:33:04;;;;;;;21.30;4.77;;;;;;;;;;5095180;28;20161;-72
2023/01/10 13:35:41;;;;;;;15.70;4.20;;;;;;;;;;5095485;28;20258;-71
2023/01/10 13:38:15;;;;;;;21.53;4.73;;;;;;;;;;5093942;28;20188;-72
2023/01/10 13:40:41;;;;;;;19.03;4.03;;;;;;;;;;5095360;28;20209;-71
2023/01/10 13:43:32;;;;;;;16.47;4.30;;;;;;;;;;5093908;28;20181;-71
2023/01/10 13:46:18;;;;;;;18.80;3.67;;;;;;;;;;5131335;22;20227;-73
2023/01/10 13:48:50;;;;;;;20.37;4.30;;;;;;;;;;5115522;28;20220;-72
2023/01/10 13:51:16;;;;;;;17.37;4.23;;;;;;;;;;5116163;28;20252;-73
2023/01/10 13:53:44;;;;;;;20.80;4.03;;;;;;;;;;5116468;28;20247;-70
2023/01/10 13:56:29;;;;;;;17.13;3.87;;;;;;;;;;5117754;28;20216;-72
2023/01/10 14:04:30;;;;;;;16.93;3.90;;;;;;;;;;5123203;28;20245;-72
2023/01/10 14:06:58;;;;;;;10.37;3.40;;;;;;;;;;5115718;28;20177;-72
2023/01/10 14:09:24;;;;;;;14.63;3.67;;;;;;;;;;5115307;28;20210;-73
2023/01/10 14:12:00;;;;;;;18.90;5.07;;;;;;;;;;5113593;28;20237;-70
2023/01/10 14:14:28;;;;;;;20.33;4.47;;;;;;;;;;5115571;28;20203;-71
2023/01/10 14:17:14;;;;;;;16.00;4.60;;;;;;;;;;5114067;28;20204;-72
2023/01/10 14:19:41;;;;;;;14.37;4.87;;;;;;;;;;5089451;28;20187;-72
2023/01/10 14:22:22;;;;;;;23.80;5.37;;;;;;;;;;5113434;28;20184;-72
2023/01/10 14:24:50;;;;;;;19.17;4.60;;;;;;;;;;5114246;28;20199;-72
2023/01/10 14:27:17;;;;;;;13.70;4.80;;;;;;;;;;5113387;28;20225;-72
2023/01/10 14:29:52;;;;;;;16.90;4.57;;;;;;;;;;5113106;28;20180;-71
2023/01/10 14:32:31;;;;;;;11.90;3.50;;;;;;;;;;5114511;28;20543;-74
2023/01/10 14:34:59;;;;;;;18.37;5.13;;;;;;;;;;5114692;28;20191;-72
2023/01/10 14:37:36;;;;;;;22.70;5.93;;;;;;;;;;5114654;28;20176;-72
2023/01/10 14:40:25;;;;;;;16.17;5.20;;;;;;;;;;5114373;28;20160;-72
2023/01/10 14:42:54;;;;;;;22.13;5.50;;;;;;;;;;5115292;28;20196;-72
2023/01/10 14:45:29;;;;;;;20.50;5.77;;;;;;;;;;5114228;28;20227;-72
2023/01/10 14:47:55;;;;;;;19.73;5.67;;;;;;;;;;5114717;28;20186;-72
2023/01/10 14:50:31;;;;;;;17.03;4.53;;;;;;;;;;5113283;28;20177;-73
2023/01/10 14:52:57;;;;;;;17.87;5.10;;;;;;;;;;5113182;28;20180;-72
2023/01/10 14:55:23;;;;;;;16.20;4.43;;;;;;;;;;5114254;28;20681;-72
2023/01/10 14:57:55;;;;;;;18.10;4.80;;;;;;;;;;5114733;28;20187;-70
2023/01/10 15:00:24;;;;;;;16.90;4.43;;;;;;;;;;5114230;28;20181;-69
2023/01/10 15:02:50;;;;;;;13.63;4.50;;;;;;;;;;5113293;28;20557;-72
2023/01/10 15:05:19;;;;;;;12.90;4.00;;;;;;;;;;5114331;28;20197;-72
2023/01/10 15:07:45;;;;;;;20.07;4.03;;;;;;;;;;5114966;28;20188;-72
2023/01/10 15:10:17;;;;;;;18.80;4.27;;;;;;;;;;5114886;28;20186;-72
2023/01/10 15:12:43;;;;;;;19.73;4.27;;;;;;;;;;5114724;28;20176;-71